sensor_id;sensor_type;location;lat;lon;timestamp;temperature;humidity
16243;DHT22;11719;51.052;6.982;2022-07-04T00:02:00;22.00;99.30
16243;DHT22;11719;51.052;6.982;2022-07-04T00:04:27;22.00;99.20
16243;DHT22;11719;51.052;6.982;2022-07-04T00:06:54;21.90;99.80
16243;DHT22;11719;51.052;6.982;2022-07-04T00:09:19;21.90;99.90
16243;DHT22;11719;51.052;6.982;2022-07-04T00:11:46;21.90;99.90
16243;DHT22;11719;51.052;6.982;2022-07-04T00:14:16;21.90;99.90
16243;DHT22;11719;51.052;6.982;2022-07-04T00:17:21;21.90;99.50
16243;DHT22;11719;51.052;6.982;2022-07-04T00:20:16;21.90;99.20
16243;DHT22;11719;51.052;6.982;2022-07-04T00:22:45;21.70;99.50
16243;DHT22;11719;51.052;6.982;2022-07-04T00:26:06;21.60;99.30
16243;DHT22;11719;51.052;6.982;2022-07-04T00:28:56;21.50;99.90
16243;DHT22;11719;51.052;6.982;2022-07-04T00:31:23;21.40;99.90
16243;DHT22;11719;51.052;6.982;2022-07-04T00:34:04;21.30;99.90
16243;DHT22;11719;51.052;6.982;2022-07-04T00:36:43;21.20;99.80
16243;DHT22;11719;51.052;6.982;2022-07-04T00:39:09;21.10;99.90
16243;DHT22;11719;51.052;6.982;2022-07-04T00:41:35;21.10;99.90
16243;DHT22;11719;51.052;6.982;2022-07-04T00:44:09;21.10;99.90
16243;DHT22;11719;51.052;6.982;2022-07-04T00:46:36;21.10;99.90
16243;DHT22;11719;51.052;6.982;2022-07-04T00:49:05;21.20;99.90
16243;DHT22;11719;51.052;6.982;2022-07-04T00:51:32;21.30;99.90
16243;DHT22;11719;51.052;6.982;2022-07-04T00:53:59;21.30;99.90
16243;DHT22;11719;51.052;6.982;2022-07-04T00:56:26;21.40;99.90
16243;DHT22;11719;51.052;6.982;2022-07-04T00:58:52;21.40;99.90
16243;DHT22;11719;51.052;6.982;2022-07-04T01:01:19;21.50;99.90
16243;DHT22;11719;51.052;6.982;2022-07-04T01:03:46;21.50;99.90
16243;DHT22;11719;51.052;6.982;2022-07-04T01:06:13;21.50;99.90
16243;DHT22;11719;51.052;6.982;2022-07-04T01:08:42;21.50;99.90
16243;DHT22;11719;51.052;6.982;2022-07-04T01:11:09;21.50;99.90
16243;DHT22;11719;51.052;6.982;2022-07-04T01:13:36;21.50;99.90
16243;DHT22;11719;51.052;6.982;2022-07-04T01:16:03;21.50;99.90
16243;DHT22;11719;51.052;6.982;2022-07-04T01:18:30;21.50;99.90
16243;DHT22;11719;51.052;6.982;2022-07-04T01:20:56;21.50;99.90
16243;DHT22;11719;51.052;6.982;2022-07-04T01:23:22;21.50;99.90
16243;DHT22;11719;51.052;6.982;2022-07-04T01:25:48;21.40;99.90
16243;DHT22;11719;51.052;6.982;2022-07-04T01:28:20;21.40;99.90
16243;DHT22;11719;51.052;6.982;2022-07-04T01:30:49;21.40;99.90
16243;DHT22;11719;51.052;6.982;2022-07-04T01:33:15;21.40;99.90
16243;DHT22;11719;51.052;6.982;2022-07-04T01:35:46;21.40;99.90
16243;DHT22;11719;51.052;6.982;2022-07-04T01:38:13;21.40;99.90
16243;DHT22;11719;51.052;6.982;2022-07-04T01:40:39;21.40;99.90
16243;DHT22;11719;51.052;6.982;2022-07-04T01:43:05;21.40;99.90
16243;DHT22;11719;51.052;6.982;2022-07-04T01:45:40;21.40;99.90
16243;DHT22;11719;51.052;6.982;2022-07-04T01:48:14;21.40;99.90
16243;DHT22;11719;51.052;6.982;2022-07-04T01:50:40;21.40;99.90
16243;DHT22;11719;51.052;6.982;2022-07-04T01:53:06;21.40;99.90
16243;DHT22;11719;51.052;6.982;2022-07-04T01:55:33;21.40;99.90
16243;DHT22;11719;51.052;6.982;2022-07-04T01:58:00;21.40;99.90
16243;DHT22;11719;51.052;6.982;2022-07-04T02:00:27;21.30;99.90
16243;DHT22;11719;51.052;6.982;2022-07-04T02:03:12;21.20;99.90
16243;DHT22;11719;51.052;6.982;2022-07-04T02:05:42;21.20;99.90
16243;DHT22;11719;51.052;6.982;2022-07-04T02:08:09;21.30;99.90
16243;DHT22;11719;51.052;6.982;2022-07-04T02:10:36;21.40;99.90
16243;DHT22;11719;51.052;6.982;2022-07-04T02:13:03;21.50;99.90
16243;DHT22;11719;51.052;6.982;2022-07-04T02:15:35;21.50;99.90
16243;DHT22;11719;51.052;6.982;2022-07-04T02:18:04;21.50;99.90
16243;DHT22;11719;51.052;6.982;2022-07-04T02:20:32;21.60;99.90
16243;DHT22;11719;51.052;6.982;2022-07-04T02:23:01;21.50;99.90
16243;DHT22;11719;51.052;6.982;2022-07-04T02:25:44;21.60;99.90
16243;DHT22;11719;51.052;6.982;2022-07-04T02:28:11;21.60;99.90
16243;DHT22;11719;51.052;6.982;2022-07-04T02:30:45;21.60;99.90
16243;DHT22;11719;51.052;6.982;2022-07-04T02:43:52;21.70;99.90
16243;DHT22;11719;51.052;6.982;2022-07-04T02:47:02;21.70;99.90
16243;DHT22;11719;51.052;6.982;2022-07-04T02:49:29;21.80;99.90
16243;DHT22;11719;51.052;6.982;2022-07-04T02:51:56;21.70;99.90
16243;DHT22;11719;51.052;6.982;2022-07-04T02:54:23;21.70;99.90
16243;DHT22;11719;51.052;6.982;2022-07-04T02:56:51;21.70;99.90
16243;DHT22;11719;51.052;6.982;2022-07-04T02:59:18;21.70;99.90
16243;DHT22;11719;51.052;6.982;2022-07-04T03:01:45;21.70;99.90
16243;DHT22;11719;51.052;6.982;2022-07-04T03:04:12;21.60;99.90
16243;DHT22;11719;51.052;6.982;2022-07-04T03:06:38;21.70;99.90
16243;DHT22;11719;51.052;6.982;2022-07-04T03:09:06;21.60;99.90
16243;DHT22;11719;51.052;6.982;2022-07-04T03:11:37;21.60;99.90
16243;DHT22;11719;51.052;6.982;2022-07-04T03:14:07;21.50;99.90
16243;DHT22;11719;51.052;6.982;2022-07-04T03:16:37;21.50;99.90
16243;DHT22;11719;51.052;6.982;2022-07-04T03:19:04;21.50;99.90
16243;DHT22;11719;51.052;6.982;2022-07-04T03:21:30;21.50;99.90
16243;DHT22;11719;51.052;6.982;2022-07-04T03:23:57;21.50;99.90
16243;DHT22;11719;51.052;6.982;2022-07-04T03:27:02;21.50;99.90
16243;DHT22;11719;51.052;6.982;2022-07-04T03:29:37;21.40;99.90
16243;DHT22;11719;51.052;6.982;2022-07-04T03:32:06;21.40;99.90
16243;DHT22;11719;51.052;6.982;2022-07-04T03:35:04;21.50;99.90
16243;DHT22;11719;51.052;6.982;2022-07-04T03:37:43;21.50;99.90
16243;DHT22;11719;51.052;6.982;2022-07-04T03:48:59;21.40;99.90
16243;DHT22;11719;51.052;6.982;2022-07-04T03:51:25;21.40;99.90
16243;DHT22;11719;51.052;6.982;2022-07-04T03:53:51;21.40;99.90
16243;DHT22;11719;51.052;6.982;2022-07-04T03:56:17;21.30;99.90
16243;DHT22;11719;51.052;6.982;2022-07-04T03:58:43;21.20;99.90
16243;DHT22;11719;51.052;6.982;2022-07-04T04:01:24;21.20;99.90
16243;DHT22;11719;51.052;6.982;2022-07-04T04:04:01;21.20;99.90
16243;DHT22;11719;51.052;6.982;2022-07-04T04:06:45;21.40;99.90
16243;DHT22;11719;51.052;6.982;2022-07-04T04:09:11;21.50;99.90
16243;DHT22;11719;51.052;6.982;2022-07-04T04:11:42;21.60;99.90
16243;DHT22;11719;51.052;6.982;2022-07-04T04:14:08;21.60;99.90
16243;DHT22;11719;51.052;6.982;2022-07-04T04:16:34;21.60;99.90
16243;DHT22;11719;51.052;6.982;2022-07-04T04:19:06;21.60;99.90
16243;DHT22;11719;51.052;6.982;2022-07-04T04:25:13;21.70;99.90
16243;DHT22;11719;51.052;6.982;2022-07-04T04:27:39;21.70;99.90
16243;DHT22;11719;51.052;6.982;2022-07-04T04:30:06;21.60;99.90
16243;DHT22;11719;51.052;6.982;2022-07-04T04:32:32;21.60;99.90
16243;DHT22;11719;51.052;6.982;2022-07-04T04:34:59;21.60;99.90
16243;DHT22;11719;51.052;6.982;2022-07-04T04:37:25;21.50;99.90
16243;DHT22;11719;51.052;6.982;2022-07-04T04:39:51;21.60;99.90
16243;DHT22;11719;51.052;6.982;2022-07-04T04:42:17;21.60;99.90
16243;DHT22;11719;51.052;6.982;2022-07-04T04:44:43;21.60;99.90
16243;DHT22;11719;51.052;6.982;2022-07-04T04:47:09;21.70;99.90
16243;DHT22;11719;51.052;6.982;2022-07-04T04:49:35;21.70;99.90
16243;DHT22;11719;51.052;6.982;2022-07-04T04:52:01;21.60;99.90
16243;DHT22;11719;51.052;6.982;2022-07-04T04:54:28;21.50;99.90
16243;DHT22;11719;51.052;6.982;2022-07-04T04:56:54;21.40;99.90
16243;DHT22;11719;51.052;6.982;2022-07-04T04:59:19;21.40;99.90
16243;DHT22;11719;51.052;6.982;2022-07-04T05:01:45;21.50;99.90
16243;DHT22;11719;51.052;6.982;2022-07-04T05:04:11;21.50;99.90
16243;DHT22;11719;51.052;6.982;2022-07-04T05:06:40;21.60;99.90
16243;DHT22;11719;51.052;6.982;2022-07-04T05:09:06;21.60;99.90
16243;DHT22;11719;51.052;6.982;2022-07-04T05:11:33;21.60;99.90
16243;DHT22;11719;51.052;6.982;2022-07-04T05:13:59;21.70;99.90
16243;DHT22;11719;51.052;6.982;2022-07-04T05:16:25;21.60;99.90
16243;DHT22;11719;51.052;6.982;2022-07-04T05:18:51;21.60;99.90
16243;DHT22;11719;51.052;6.982;2022-07-04T05:21:17;21.60;99.90
16243;DHT22;11719;51.052;6.982;2022-07-04T05:23:42;21.60;99.90
16243;DHT22;11719;51.052;6.982;2022-07-04T05:26:08;21.80;99.90
16243;DHT22;11719;51.052;6.982;2022-07-04T05:28:34;21.80;99.90
16243;DHT22;11719;51.052;6.982;2022-07-04T05:31:00;21.90;99.90
16243;DHT22;11719;51.052;6.982;2022-07-04T05:33:26;22.00;99.90
16243;DHT22;11719;51.052;6.982;2022-07-04T05:35:52;22.20;99.90
16243;DHT22;11719;51.052;6.982;2022-07-04T05:38:18;22.20;99.90
16243;DHT22;11719;51.052;6.982;2022-07-04T05:40:44;22.30;99.90
16243;DHT22;11719;51.052;6.982;2022-07-04T05:43:10;22.30;99.90
16243;DHT22;11719;51.052;6.982;2022-07-04T05:45:37;22.30;99.90
16243;DHT22;11719;51.052;6.982;2022-07-04T05:48:03;22.30;99.90
16243;DHT22;11719;51.052;6.982;2022-07-04T05:50:29;22.20;99.90
16243;DHT22;11719;51.052;6.982;2022-07-04T05:52:55;22.20;99.90
16243;DHT22;11719;51.052;6.982;2022-07-04T05:55:21;22.10;99.70
16243;DHT22;11719;51.052;6.982;2022-07-04T05:57:47;22.10;99.90
16243;DHT22;11719;51.052;6.982;2022-07-04T06:00:13;22.10;99.90
16243;DHT22;11719;51.052;6.982;2022-07-04T06:02:39;22.10;99.90
16243;DHT22;11719;51.052;6.982;2022-07-04T06:05:07;22.00;99.30
16243;DHT22;11719;51.052;6.982;2022-07-04T06:07:33;22.00;99.90
16243;DHT22;11719;51.052;6.982;2022-07-04T06:09:59;22.00;99.90
16243;DHT22;11719;51.052;6.982;2022-07-04T06:12:25;22.00;99.90
16243;DHT22;11719;51.052;6.982;2022-07-04T06:14:51;21.70;99.90
16243;DHT22;11719;51.052;6.982;2022-07-04T06:17:17;21.50;99.90
16243;DHT22;11719;51.052;6.982;2022-07-04T06:19:42;21.50;99.90
16243;DHT22;11719;51.052;6.982;2022-07-04T06:22:08;21.40;99.90
16243;DHT22;11719;51.052;6.982;2022-07-04T06:24:34;21.10;99.90
16243;DHT22;11719;51.052;6.982;2022-07-04T06:27:00;21.10;99.90
16243;DHT22;11719;51.052;6.982;2022-07-04T06:29:28;21.20;99.90
16243;DHT22;11719;51.052;6.982;2022-07-04T06:31:54;21.20;99.90
16243;DHT22;11719;51.052;6.982;2022-07-04T06:34:20;21.30;99.90
16243;DHT22;11719;51.052;6.982;2022-07-04T06:37:18;21.30;99.90
16243;DHT22;11719;51.052;6.982;2022-07-04T06:39:44;21.40;99.90
16243;DHT22;11719;51.052;6.982;2022-07-04T06:42:10;21.30;99.90
16243;DHT22;11719;51.052;6.982;2022-07-04T06:44:36;21.50;99.90
16243;DHT22;11719;51.052;6.982;2022-07-04T06:47:02;21.60;99.90
16243;DHT22;11719;51.052;6.982;2022-07-04T06:49:28;21.70;99.90
16243;DHT22;11719;51.052;6.982;2022-07-04T06:51:54;21.80;99.90
16243;DHT22;11719;51.052;6.982;2022-07-04T06:54:19;21.90;99.90
16243;DHT22;11719;51.052;6.982;2022-07-04T06:56:45;21.90;99.90
16243;DHT22;11719;51.052;6.982;2022-07-04T06:59:11;22.00;99.90
16243;DHT22;11719;51.052;6.982;2022-07-04T07:01:37;22.00;99.00
16243;DHT22;11719;51.052;6.982;2022-07-04T07:04:03;21.80;99.10
16243;DHT22;11719;51.052;6.982;2022-07-04T07:06:29;21.70;99.90
16243;DHT22;11719;51.052;6.982;2022-07-04T07:08:55;21.80;99.90
16243;DHT22;11719;51.052;6.982;2022-07-04T07:11:21;21.90;99.90
16243;DHT22;11719;51.052;6.982;2022-07-04T07:13:49;22.00;99.90
16243;DHT22;11719;51.052;6.982;2022-07-04T07:16:17;22.10;99.80
16243;DHT22;11719;51.052;6.982;2022-07-04T07:18:44;21.90;98.10
16243;DHT22;11719;51.052;6.982;2022-07-04T07:21:11;21.80;98.80
16243;DHT22;11719;51.052;6.982;2022-07-04T07:23:39;21.70;99.90
16243;DHT22;11719;51.052;6.982;2022-07-04T07:26:05;21.80;99.90
16243;DHT22;11719;51.052;6.982;2022-07-04T07:28:31;22.00;99.90
16243;DHT22;11719;51.052;6.982;2022-07-04T07:30:57;22.00;98.30
16243;DHT22;11719;51.052;6.982;2022-07-04T07:33:23;21.90;98.10
16243;DHT22;11719;51.052;6.982;2022-07-04T07:35:49;21.70;98.60
16243;DHT22;11719;51.052;6.982;2022-07-04T07:38:15;21.80;99.90
16243;DHT22;11719;51.052;6.982;2022-07-04T07:40:41;21.90;99.90
16243;DHT22;11719;51.052;6.982;2022-07-04T07:43:07;22.00;97.80
16243;DHT22;11719;51.052;6.982;2022-07-04T07:45:33;22.00;99.90
16243;DHT22;11719;51.052;6.982;2022-07-04T07:47:59;22.10;99.80
16243;DHT22;11719;51.052;6.982;2022-07-04T07:50:25;22.00;99.90
16243;DHT22;11719;51.052;6.982;2022-07-04T07:52:51;22.00;99.90
16243;DHT22;11719;51.052;6.982;2022-07-04T07:55:17;22.00;95.90
16243;DHT22;11719;51.052;6.982;2022-07-04T07:57:43;21.90;96.00
16243;DHT22;11719;51.052;6.982;2022-07-04T08:00:10;21.80;97.00
16243;DHT22;11719;51.052;6.982;2022-07-04T08:02:37;21.80;96.80
16243;DHT22;11719;51.052;6.982;2022-07-04T08:05:21;21.80;96.30
16243;DHT22;11719;51.052;6.982;2022-07-04T08:07:47;21.80;98.20
16243;DHT22;11719;51.052;6.982;2022-07-04T08:10:13;21.80;99.90
16243;DHT22;11719;51.052;6.982;2022-07-04T08:12:39;21.90;99.90
16243;DHT22;11719;51.052;6.982;2022-07-04T08:15:05;21.90;99.90
16243;DHT22;11719;51.052;6.982;2022-07-04T08:17:31;22.00;99.90
16243;DHT22;11719;51.052;6.982;2022-07-04T08:19:58;22.10;99.90
16243;DHT22;11719;51.052;6.982;2022-07-04T08:22:24;22.20;99.90
16243;DHT22;11719;51.052;6.982;2022-07-04T08:24:50;22.30;99.90
16243;DHT22;11719;51.052;6.982;2022-07-04T08:27:15;22.30;99.70
16243;DHT22;11719;51.052;6.982;2022-07-04T08:29:41;22.40;98.50
16243;DHT22;11719;51.052;6.982;2022-07-04T08:32:07;22.30;95.10
16243;DHT22;11719;51.052;6.982;2022-07-04T08:34:34;22.30;99.20
16243;DHT22;11719;51.052;6.982;2022-07-04T08:37:00;22.20;98.20
16243;DHT22;11719;51.052;6.982;2022-07-04T08:39:27;22.30;99.60
16243;DHT22;11719;51.052;6.982;2022-07-04T08:41:55;22.30;99.10
16243;DHT22;11719;51.052;6.982;2022-07-04T08:44:23;22.30;99.90
16243;DHT22;11719;51.052;6.982;2022-07-04T08:46:52;22.40;97.20
16243;DHT22;11719;51.052;6.982;2022-07-04T08:49:30;22.30;93.40
16243;DHT22;11719;51.052;6.982;2022-07-04T08:52:02;22.20;96.10
16243;DHT22;11719;51.052;6.982;2022-07-04T08:54:31;22.20;98.80
16243;DHT22;11719;51.052;6.982;2022-07-04T08:57:17;22.30;96.20
16243;DHT22;11719;51.052;6.982;2022-07-04T09:00:06;22.30;98.80
16243;DHT22;11719;51.052;6.982;2022-07-04T09:02:33;22.30;94.90
16243;DHT22;11719;51.052;6.982;2022-07-04T09:05:00;22.30;96.20
16243;DHT22;11719;51.052;6.982;2022-07-04T09:07:29;22.30;95.40
16243;DHT22;11719;51.052;6.982;2022-07-04T09:09:57;22.30;93.90
16243;DHT22;11719;51.052;6.982;2022-07-04T09:12:24;22.40;97.70
16243;DHT22;11719;51.052;6.982;2022-07-04T09:14:50;22.40;97.30
16243;DHT22;11719;51.052;6.982;2022-07-04T09:17:20;22.40;94.80
16243;DHT22;11719;51.052;6.982;2022-07-04T09:20:16;22.40;96.60
16243;DHT22;11719;51.052;6.982;2022-07-04T09:22:44;22.40;93.50
16243;DHT22;11719;51.052;6.982;2022-07-04T09:25:11;22.40;94.40
16243;DHT22;11719;51.052;6.982;2022-07-04T09:27:43;22.40;92.40
16243;DHT22;11719;51.052;6.982;2022-07-04T09:30:12;22.50;92.60
16243;DHT22;11719;51.052;6.982;2022-07-04T09:32:42;22.50;92.50
16243;DHT22;11719;51.052;6.982;2022-07-04T09:35:17;22.50;95.30
16243;DHT22;11719;51.052;6.982;2022-07-04T09:37:48;22.50;96.60
16243;DHT22;11719;51.052;6.982;2022-07-04T09:40:36;22.50;93.50
16243;DHT22;11719;51.052;6.982;2022-07-04T09:43:23;22.50;93.30
16243;DHT22;11719;51.052;6.982;2022-07-04T09:45:59;22.50;94.00
16243;DHT22;11719;51.052;6.982;2022-07-04T09:48:48;22.50;91.10
16243;DHT22;11719;51.052;6.982;2022-07-04T09:51:15;22.60;93.30
16243;DHT22;11719;51.052;6.982;2022-07-04T09:54:21;22.60;97.20
16243;DHT22;11719;51.052;6.982;2022-07-04T09:57:02;22.70;92.90
16243;DHT22;11719;51.052;6.982;2022-07-04T09:59:29;22.70;96.50
16243;DHT22;11719;51.052;6.982;2022-07-04T10:02:08;22.70;93.40
16243;DHT22;11719;51.052;6.982;2022-07-04T10:04:49;22.70;91.70
16243;DHT22;11719;51.052;6.982;2022-07-04T10:07:36;22.80;91.70
16243;DHT22;11719;51.052;6.982;2022-07-04T10:10:34;22.70;92.70
16243;DHT22;11719;51.052;6.982;2022-07-04T10:13:04;22.70;92.30
16243;DHT22;11719;51.052;6.982;2022-07-04T10:15:32;22.80;91.30
16243;DHT22;11719;51.052;6.982;2022-07-04T10:18:00;22.80;96.90
16243;DHT22;11719;51.052;6.982;2022-07-04T10:20:26;22.80;93.50
16243;DHT22;11719;51.052;6.982;2022-07-04T10:22:53;22.90;94.10
16243;DHT22;11719;51.052;6.982;2022-07-04T10:25:19;22.90;93.20
16243;DHT22;11719;51.052;6.982;2022-07-04T10:27:45;23.00;93.30
16243;DHT22;11719;51.052;6.982;2022-07-04T10:30:15;23.00;96.60
16243;DHT22;11719;51.052;6.982;2022-07-04T10:32:44;23.00;92.90
16243;DHT22;11719;51.052;6.982;2022-07-04T10:35:15;23.00;92.90
16243;DHT22;11719;51.052;6.982;2022-07-04T10:38:00;23.00;90.80
16243;DHT22;11719;51.052;6.982;2022-07-04T10:40:53;23.10;93.50
16243;DHT22;11719;51.052;6.982;2022-07-04T10:51:53;23.20;94.40
16243;DHT22;11719;51.052;6.982;2022-07-04T10:54:40;23.30;94.60
16243;DHT22;11719;51.052;6.982;2022-07-04T10:57:10;23.20;93.20
16243;DHT22;11719;51.052;6.982;2022-07-04T11:02:27;23.30;94.30
16243;DHT22;11719;51.052;6.982;2022-07-04T11:05:00;23.30;91.30
16243;DHT22;11719;51.052;6.982;2022-07-04T11:17:57;23.60;93.90
16243;DHT22;11719;51.052;6.982;2022-07-04T11:20:28;23.60;93.10
16243;DHT22;11719;51.052;6.982;2022-07-04T11:26:37;23.60;93.20
16243;DHT22;11719;51.052;6.982;2022-07-04T11:29:03;23.60;90.10
16243;DHT22;11719;51.052;6.982;2022-07-04T11:31:46;23.60;93.60
16243;DHT22;11719;51.052;6.982;2022-07-04T11:34:14;23.50;93.70
16243;DHT22;11719;51.052;6.982;2022-07-04T11:36:41;23.50;95.40
16243;DHT22;11719;51.052;6.982;2022-07-04T11:39:12;23.60;92.70
16243;DHT22;11719;51.052;6.982;2022-07-04T11:41:41;23.60;95.00
16243;DHT22;11719;51.052;6.982;2022-07-04T11:44:31;23.60;92.40
16243;DHT22;11719;51.052;6.982;2022-07-04T11:47:31;23.60;93.10
16243;DHT22;11719;51.052;6.982;2022-07-04T11:49:59;23.60;92.90
16243;DHT22;11719;51.052;6.982;2022-07-04T11:52:43;23.50;90.20
16243;DHT22;11719;51.052;6.982;2022-07-04T11:55:13;23.50;93.50
16243;DHT22;11719;51.052;6.982;2022-07-04T11:57:47;23.50;91.50
16243;DHT22;11719;51.052;6.982;2022-07-04T12:00:16;23.50;91.30
16243;DHT22;11719;51.052;6.982;2022-07-04T12:02:46;23.40;91.30
16243;DHT22;11719;51.052;6.982;2022-07-04T12:05:14;23.50;90.70
16243;DHT22;11719;51.052;6.982;2022-07-04T12:07:43;23.50;89.80
16243;DHT22;11719;51.052;6.982;2022-07-04T12:10:15;23.50;94.00
16243;DHT22;11719;51.052;6.982;2022-07-04T12:13:00;23.50;93.40
16243;DHT22;11719;51.052;6.982;2022-07-04T12:15:44;23.50;90.90
16243;DHT22;11719;51.052;6.982;2022-07-04T12:18:29;23.50;92.80
16243;DHT22;11719;51.052;6.982;2022-07-04T12:21:17;23.50;91.80
16243;DHT22;11719;51.052;6.982;2022-07-04T12:23:54;23.50;93.50
16243;DHT22;11719;51.052;6.982;2022-07-04T12:26:20;23.50;93.20
16243;DHT22;11719;51.052;6.982;2022-07-04T12:28:46;23.50;92.80
16243;DHT22;11719;51.052;6.982;2022-07-04T12:31:13;23.50;92.50
16243;DHT22;11719;51.052;6.982;2022-07-04T12:33:40;23.60;94.30
16243;DHT22;11719;51.052;6.982;2022-07-04T12:36:21;23.70;94.60
16243;DHT22;11719;51.052;6.982;2022-07-04T12:38:47;23.60;93.90
16243;DHT22;11719;51.052;6.982;2022-07-04T12:41:14;23.70;90.60
16243;DHT22;11719;51.052;6.982;2022-07-04T12:43:44;23.70;91.90
16243;DHT22;11719;51.052;6.982;2022-07-04T12:46:32;23.70;87.90
16243;DHT22;11719;51.052;6.982;2022-07-04T12:49:00;23.70;93.30
16243;DHT22;11719;51.052;6.982;2022-07-04T12:51:32;23.60;88.20
16243;DHT22;11719;51.052;6.982;2022-07-04T12:54:06;23.70;91.70
16243;DHT22;11719;51.052;6.982;2022-07-04T12:56:43;23.70;92.40
16243;DHT22;11719;51.052;6.982;2022-07-04T12:59:15;23.60;92.30
16243;DHT22;11719;51.052;6.982;2022-07-04T13:01:47;23.70;90.70
16243;DHT22;11719;51.052;6.982;2022-07-04T13:04:13;23.60;93.30
16243;DHT22;11719;51.052;6.982;2022-07-04T13:06:40;23.60;90.80
16243;DHT22;11719;51.052;6.982;2022-07-04T13:09:07;23.60;92.80
16243;DHT22;11719;51.052;6.982;2022-07-04T13:11:34;23.70;93.20
16243;DHT22;11719;51.052;6.982;2022-07-04T13:14:20;23.80;90.20
16243;DHT22;11719;51.052;6.982;2022-07-04T13:16:46;23.90;93.20
16243;DHT22;11719;51.052;6.982;2022-07-04T13:19:11;23.90;93.00
16243;DHT22;11719;51.052;6.982;2022-07-04T13:21:41;23.90;92.00
16243;DHT22;11719;51.052;6.982;2022-07-04T13:24:07;24.00;91.20
16243;DHT22;11719;51.052;6.982;2022-07-04T13:26:33;23.90;92.70
16243;DHT22;11719;51.052;6.982;2022-07-04T13:28:59;23.80;93.20
16243;DHT22;11719;51.052;6.982;2022-07-04T13:31:27;23.80;92.10
16243;DHT22;11719;51.052;6.982;2022-07-04T13:33:53;23.70;92.20
16243;DHT22;11719;51.052;6.982;2022-07-04T13:36:19;23.60;92.80
16243;DHT22;11719;51.052;6.982;2022-07-04T13:38:45;23.60;92.10
16243;DHT22;11719;51.052;6.982;2022-07-04T13:41:11;23.60;92.10
16243;DHT22;11719;51.052;6.982;2022-07-04T13:43:37;23.70;92.00
16243;DHT22;11719;51.052;6.982;2022-07-04T13:46:04;23.70;92.60
16243;DHT22;11719;51.052;6.982;2022-07-04T13:48:42;23.60;93.90
16243;DHT22;11719;51.052;6.982;2022-07-04T13:51:15;23.60;92.00
16243;DHT22;11719;51.052;6.982;2022-07-04T13:53:43;23.60;89.50
16243;DHT22;11719;51.052;6.982;2022-07-04T13:56:09;23.70;90.90
16243;DHT22;11719;51.052;6.982;2022-07-04T13:58:35;23.60;89.70
16243;DHT22;11719;51.052;6.982;2022-07-04T14:01:01;23.70;92.20
16243;DHT22;11719;51.052;6.982;2022-07-04T14:03:27;23.70;90.40
16243;DHT22;11719;51.052;6.982;2022-07-04T14:05:53;23.80;89.40
16243;DHT22;11719;51.052;6.982;2022-07-04T14:08:20;23.90;89.70
16243;DHT22;11719;51.052;6.982;2022-07-04T14:10:47;23.90;92.20
16243;DHT22;11719;51.052;6.982;2022-07-04T14:13:13;24.00;90.80
16243;DHT22;11719;51.052;6.982;2022-07-04T14:15:40;24.00;87.20
16243;DHT22;11719;51.052;6.982;2022-07-04T14:18:06;24.00;87.90
16243;DHT22;11719;51.052;6.982;2022-07-04T14:20:36;24.00;91.50
16243;DHT22;11719;51.052;6.982;2022-07-04T14:23:02;24.00;92.70
16243;DHT22;11719;51.052;6.982;2022-07-04T14:25:28;23.90;92.50
16243;DHT22;11719;51.052;6.982;2022-07-04T14:27:54;23.90;88.10
16243;DHT22;11719;51.052;6.982;2022-07-04T14:30:20;23.90;89.50
16243;DHT22;11719;51.052;6.982;2022-07-04T14:32:46;23.90;90.50
16243;DHT22;11719;51.052;6.982;2022-07-04T14:35:12;23.90;90.30
16243;DHT22;11719;51.052;6.982;2022-07-04T14:37:39;24.00;91.30
16243;DHT22;11719;51.052;6.982;2022-07-04T14:40:05;23.90;92.30
16243;DHT22;11719;51.052;6.982;2022-07-04T14:42:32;24.00;92.30
16243;DHT22;11719;51.052;6.982;2022-07-04T14:44:58;24.20;88.90
16243;DHT22;11719;51.052;6.982;2022-07-04T14:47:23;24.20;92.60
16243;DHT22;11719;51.052;6.982;2022-07-04T14:49:49;24.10;91.70
16243;DHT22;11719;51.052;6.982;2022-07-04T14:52:16;24.10;92.30
16243;DHT22;11719;51.052;6.982;2022-07-04T14:54:41;24.00;92.70
16243;DHT22;11719;51.052;6.982;2022-07-04T14:57:10;23.90;91.80
16243;DHT22;11719;51.052;6.982;2022-07-04T14:59:37;24.10;90.10
16243;DHT22;11719;51.052;6.982;2022-07-04T15:02:04;23.90;90.70
16243;DHT22;11719;51.052;6.982;2022-07-04T15:04:30;23.90;92.10
16243;DHT22;11719;51.052;6.982;2022-07-04T15:06:58;23.90;88.60
16243;DHT22;11719;51.052;6.982;2022-07-04T15:09:24;23.90;89.30
16243;DHT22;11719;51.052;6.982;2022-07-04T15:11:50;23.80;92.50
16243;DHT22;11719;51.052;6.982;2022-07-04T15:14:17;23.80;92.50
16243;DHT22;11719;51.052;6.982;2022-07-04T15:16:46;23.80;93.00
16243;DHT22;11719;51.052;6.982;2022-07-04T15:19:20;23.90;86.20
16243;DHT22;11719;51.052;6.982;2022-07-04T15:21:47;23.90;91.30
16243;DHT22;11719;51.052;6.982;2022-07-04T15:24:31;23.90;92.00
16243;DHT22;11719;51.052;6.982;2022-07-04T15:27:05;23.90;92.60
16243;DHT22;11719;51.052;6.982;2022-07-04T15:29:31;23.90;88.90
16243;DHT22;11719;51.052;6.982;2022-07-04T15:31:58;23.80;93.00
16243;DHT22;11719;51.052;6.982;2022-07-04T15:34:24;23.80;92.90
16243;DHT22;11719;51.052;6.982;2022-07-04T15:36:50;23.90;91.20
16243;DHT22;11719;51.052;6.982;2022-07-04T15:39:57;23.90;92.90
16243;DHT22;11719;51.052;6.982;2022-07-04T15:42:23;23.80;91.20
16243;DHT22;11719;51.052;6.982;2022-07-04T15:44:49;23.80;86.20
16243;DHT22;11719;51.052;6.982;2022-07-04T15:47:15;23.90;91.10
16243;DHT22;11719;51.052;6.982;2022-07-04T15:49:42;23.90;91.50
16243;DHT22;11719;51.052;6.982;2022-07-04T15:52:08;24.00;91.70
16243;DHT22;11719;51.052;6.982;2022-07-04T15:54:34;24.00;86.10
16243;DHT22;11719;51.052;6.982;2022-07-04T15:57:00;23.90;92.30
16243;DHT22;11719;51.052;6.982;2022-07-04T15:59:27;23.90;92.40
16243;DHT22;11719;51.052;6.982;2022-07-04T16:01:53;23.80;91.80
16243;DHT22;11719;51.052;6.982;2022-07-04T16:04:19;23.80;92.40
16243;DHT22;11719;51.052;6.982;2022-07-04T16:06:46;23.80;85.60
16243;DHT22;11719;51.052;6.982;2022-07-04T16:09:13;23.90;88.30
16243;DHT22;11719;51.052;6.982;2022-07-04T16:11:39;23.80;91.70
16243;DHT22;11719;51.052;6.982;2022-07-04T16:14:07;23.80;91.30
16243;DHT22;11719;51.052;6.982;2022-07-04T16:16:33;23.70;92.50
16243;DHT22;11719;51.052;6.982;2022-07-04T16:19:00;23.70;93.40
16243;DHT22;11719;51.052;6.982;2022-07-04T16:21:29;23.80;86.20
16243;DHT22;11719;51.052;6.982;2022-07-04T16:23:55;23.80;92.80
16243;DHT22;11719;51.052;6.982;2022-07-04T16:26:21;23.80;84.70
16243;DHT22;11719;51.052;6.982;2022-07-04T16:28:47;23.80;91.60
16243;DHT22;11719;51.052;6.982;2022-07-04T16:31:13;23.70;92.00
16243;DHT22;11719;51.052;6.982;2022-07-04T16:33:39;23.70;90.10
16243;DHT22;11719;51.052;6.982;2022-07-04T16:36:05;23.80;92.00